Current Weather

Chicago O'Hare International

Chicago, Illinois (KORD)

Report from: Friday, February 3, 2023 11:51 PM CST
Current time: Saturday, February 4, 2023 12:31 AM CST

Nearby weather
Weather history
Weather forecast

Temperature-11.7°C (10.9°F)
Wind chill-18.8°C (-1.8°F)
Dew point-19.4°C (-2.9°F)
Winds 8 kts (4.1 m/s, 9.2 mph) South (190°)
Visibility10 mi. (16.1 km)
Clouds Ceiling: Broken clouds 4,300 ft. (1,311 m)
Broken clouds 15,000 ft. (4,572 m)
Altimeter30.45 in.Hg (1031 mB)
Relative humidity53 %
Density altitude-3,939 ft. (-1,201 m)
Sea-level pressure103.3 kPa (1033 mB, 30.50 in.Hg)
Max temp last 6 hours-11.7°C (10.9°F)
Min temp last 6 hours-12.8°C (9.0°F)
Max temp last 24 hours-11.7°C (10.9°F)
Min temp last 24 hours-18.3°C (-0.9°F)
Snow depth2.00 in. (51 mm)
Remarks System requires maintenance
Automated weather observing station with precipitation discriminator
Pressure falling more quickly
Flight conditions Visual Meteorological Conditions
Raw dataKORD 040551Z 19008KT 10SM BKN043 BKN150 M12/M19 A3045 RMK AO2 SLP327 4/002 T11171194 11117 21128 411171183 58013 $
An unhandled exception has occurred. See browser dev tools for details. Reload 🗙